Airfield :
LOGIN :

Register | Disclaimer

   EN    FR    IT 

 










Legend :    VFR   Marginal VFR   IFR   Intensive IFR   Very Intensive IFR
Visi :
Ceiling :
>= 8 km
>= 3000ft
5 to 8 km
1000 to 3000 ft
1500m to 5 km
500 to 1000 ft
800 to 1500m
200 to 500 ft
< 800m
< 200 ft
Symbols :   Thunderstorms  Fog  Heavy snow  Heavy precipitations  Wind > 20 kt
SIGMETs :     Misc.  Thunderstorms  Icing  Turbulence  Mountain Waves  Volcanic Ashes







- Airport Elevation : 1247 ft
- IATA code : PRG


LKPR - Praha Ruzyne

CURRENT METAR :
  • 241530Z 03005KT 010V070 9999 SCT036 11/03 Q1028 NOSIG

EXPIRED METARs :
  • 241500Z 05005KT 9999 FEW032 SCT040 11/03 Q1028 NOSIG
  • 241430Z 09006KT 050V110 9999 FEW033 SCT040 11/03 Q1028 NOSIG
  • 241400Z 10004KT 020V170 9999 FEW035 BKN040 10/03 Q1028 NOSIG
  • 241330Z 11004KT 070V140 9999 SCT031 BKN039 10/03 Q1028 NOSIG
  • 241300Z 36004KT 320V050 9999 BKN030 BKN035 10/03 Q1028 NOSIG

TAF TAF LKPR
Valid from the 24 at 12:00 until the 25 at 18:00 UTC


241100Z 2412/2518 04008KT 9999 BKN025
TEMPO 2412/2415 SCT025
BECMG 2415/2417 CAVOK
BECMG 2420/2422 VRB02KT
PROB30
TEMPO 2500/2507 3000 BR NSC
BECMG 2507/2509 34010KT
No reported NOTAMs for that airfield.



MET'MAP, your aeronautical weather chart ! - Copyright ORBIFLY December 2007 - Disclaimer

ORBIFLY MET'MAP TEAM :

Programming & Development : Alexandra Zaïnal
Concept & Development : Baudouin d'Aumeries
Co-Development & Prog : Marc-Olivier Méhu
Technical & hardware support : Manuel Goepfert

Contact : metmap@orbifly.com




SOURCES & CREDITS :

   NOAA